createdAt,value
2018-07-24T00:00:34.605Z,22.56
2018-07-24T00:03:05.573Z,22.16
2018-07-24T00:05:36.526Z,22.49
2018-07-24T00:08:07.455Z,22.44
2018-07-24T00:10:38.525Z,22.41
2018-07-24T00:13:09.460Z,22.37
2018-07-24T00:15:40.402Z,22.32
2018-07-24T00:18:11.760Z,22.31
2018-07-24T00:20:42.570Z,22.26
2018-07-24T00:23:13.499Z,22.23
2018-07-24T00:25:44.388Z,22.21
2018-07-24T00:28:15.668Z,22.19
2018-07-24T00:30:46.546Z,22.15
2018-07-24T00:33:17.378Z,22.11
2018-07-24T00:35:48.329Z,22.07
2018-07-24T00:38:19.641Z,21.99
2018-07-24T00:40:50.507Z,22.01
2018-07-24T00:43:22.869Z,21.97
2018-07-24T00:45:52.831Z,21.91
2018-07-24T00:48:24.789Z,21.85
2018-07-24T00:50:54.775Z,21.81
2018-07-24T00:53:25.641Z,21.79
2018-07-24T00:55:58.045Z,21.75
2018-07-24T00:58:27.860Z,21.73
2018-07-24T01:00:58.595Z,21.68
2018-07-24T01:03:29.437Z,21.62
2018-07-24T01:06:00.976Z,21.60
2018-07-24T01:08:31.593Z,21.57
2018-07-24T01:11:02.670Z,21.54
2018-07-24T01:13:34.414Z,21.14
2018-07-24T01:16:04.838Z,21.52
2018-07-24T01:18:35.646Z,21.51
2018-07-24T01:21:06.539Z,21.50
2018-07-24T01:23:37.388Z,21.49
2018-07-24T01:26:08.732Z,21.46
2018-07-24T01:28:39.603Z,21.43
2018-07-24T01:31:10.399Z,21.43
2018-07-24T01:33:41.682Z,21.42
2018-07-24T01:36:13.159Z,21.40
2018-07-24T01:38:43.761Z,21.40
2018-07-24T01:41:14.710Z,21.38
2018-07-24T01:43:45.633Z,21.36
2018-07-24T01:46:16.452Z,21.34
2018-07-24T01:48:47.346Z,21.32
2018-07-24T01:51:18.683Z,21.31
2018-07-24T01:53:49.559Z,21.29
2018-07-24T01:56:20.533Z,21.27
2018-07-24T01:58:51.398Z,21.26
2018-07-24T02:01:22.673Z,21.24
2018-07-24T02:03:53.528Z,21.23
2018-07-24T02:06:24.415Z,21.18
2018-07-24T02:08:55.650Z,21.16
2018-07-24T02:11:26.550Z,21.14
2018-07-24T02:13:57.460Z,21.11
2018-07-24T02:16:28.364Z,21.08
2018-07-24T02:18:59.735Z,21.07
2018-07-24T02:21:30.684Z,21.06
2018-07-24T02:24:02.500Z,20.95
2018-07-24T02:26:32.434Z,21.00
2018-07-24T02:29:03.348Z,20.95
2018-07-24T02:31:35.059Z,20.87
2018-07-24T02:34:05.656Z,20.89
2018-07-24T02:36:36.534Z,20.85
2018-07-24T02:39:11.439Z,20.83
2018-07-24T02:41:41.325Z,20.78
2018-07-24T02:44:11.318Z,20.76
2018-07-24T02:46:41.190Z,20.73
2018-07-24T02:49:11.711Z,20.62
2018-07-24T02:51:42.655Z,20.69
2018-07-24T02:54:13.551Z,20.66
2018-07-24T02:56:44.459Z,20.65
2018-07-24T02:59:15.374Z,20.63
2018-07-24T03:01:46.720Z,20.59
2018-07-24T03:04:17.525Z,20.56
2018-07-24T03:06:50.176Z,20.54
2018-07-24T03:09:20.002Z,20.36
2018-07-24T03:11:51.041Z,20.48
2018-07-24T03:14:21.573Z,20.46
2018-07-24T03:16:52.487Z,20.44
2018-07-24T03:19:23.409Z,20.40
2018-07-24T03:21:54.764Z,20.38
2018-07-24T03:24:25.631Z,20.36
2018-07-24T03:26:58.264Z,20.35
2018-07-24T03:29:28.074Z,20.31
2018-07-24T03:31:58.926Z,20.28
2018-07-24T03:34:29.715Z,20.25
2018-07-24T03:37:00.644Z,20.21
2018-07-24T03:39:31.523Z,20.20
2018-07-24T03:42:04.013Z,20.17
2018-07-24T03:44:34.882Z,20.16
2018-07-24T03:47:04.737Z,20.14
2018-07-24T03:49:35.557Z,20.08
2018-07-24T03:52:06.462Z,19.81
2018-07-24T03:54:37.420Z,19.97
2018-07-24T03:57:09.146Z,19.96
2018-07-24T03:59:39.710Z,19.90
2018-07-24T04:02:10.756Z,19.87
2018-07-24T04:04:41.641Z,19.87
2018-07-24T04:07:12.599Z,19.87
2018-07-24T04:09:43.449Z,19.83
2018-07-24T04:12:15.582Z,19.66
2018-07-24T04:14:45.709Z,19.76
2018-07-24T04:17:16.862Z,19.76
2018-07-24T04:19:47.609Z,19.79
2018-07-24T04:22:18.528Z,19.82
2018-07-24T04:24:49.397Z,19.85
2018-07-24T04:27:20.746Z,19.86
2018-07-24T04:29:53.372Z,19.87
2018-07-24T04:32:23.479Z,19.89
2018-07-24T04:34:53.755Z,19.91
2018-07-24T04:37:24.651Z,19.96
2018-07-24T04:39:55.548Z,19.96
2018-07-24T04:42:26.662Z,20.00
2018-07-24T04:44:57.530Z,20.03
2018-07-24T04:47:28.495Z,20.04
2018-07-24T04:49:59.500Z,20.06
2018-07-24T04:52:30.598Z,20.11
2018-07-24T04:55:02.378Z,19.72
2018-07-24T04:57:32.402Z,20.18
2018-07-24T05:00:03.858Z,20.19
2018-07-24T05:02:34.790Z,20.24
2018-07-24T05:05:05.885Z,20.29
2018-07-24T05:07:36.760Z,20.33
2018-07-24T05:10:07.693Z,20.36
2018-07-24T05:12:38.643Z,20.39
2018-07-24T05:15:09.553Z,20.48
2018-07-24T05:17:40.442Z,20.51
2018-07-24T05:20:11.776Z,20.56
2018-07-24T05:22:43.714Z,20.57
2018-07-24T05:25:13.639Z,20.60
2018-07-24T05:27:44.666Z,20.61
2018-07-24T05:30:15.946Z,20.46
2018-07-24T05:32:46.254Z,20.65
2018-07-24T05:35:16.820Z,20.68
2018-07-24T05:37:49.046Z,20.72
2018-07-24T05:40:20.392Z,20.75
2018-07-24T05:42:51.169Z,20.79
2018-07-24T05:45:21.117Z,20.85
2018-07-24T05:47:51.950Z,20.92
2018-07-24T05:50:22.767Z,20.80
2018-07-24T05:52:53.671Z,21.03
2018-07-24T05:55:24.713Z,21.09
2018-07-24T05:57:55.719Z,21.13
2018-07-24T06:00:26.762Z,21.14
2018-07-24T06:02:57.694Z,21.18
2018-07-24T06:05:28.652Z,21.24
2018-07-24T06:07:59.726Z,21.26
2018-07-24T06:10:30.745Z,21.32
2018-07-24T06:13:01.795Z,21.33
2018-07-24T06:15:32.680Z,21.39
2018-07-24T06:18:03.925Z,21.47
2018-07-24T06:20:34.674Z,21.36
2018-07-24T06:23:06.496Z,21.60
2018-07-24T06:25:36.437Z,21.65
2018-07-24T06:28:07.880Z,21.73
2018-07-24T06:30:38.768Z,21.80
2018-07-24T06:33:08.597Z,21.90
2018-07-24T06:35:38.608Z,21.96
2018-07-24T06:38:09.526Z,22.00
2018-07-24T06:40:40.516Z,21.95
2018-07-24T06:43:11.452Z,21.95
2018-07-24T06:45:42.478Z,21.97
2018-07-24T06:48:13.462Z,22.05
2018-07-24T06:50:44.880Z,22.13
2018-07-24T06:53:15.783Z,22.19
2018-07-24T06:55:46.663Z,22.30
2018-07-24T06:58:17.655Z,22.36
2018-07-24T07:00:48.536Z,22.49
2018-07-24T07:03:19.620Z,22.54
2018-07-24T07:05:50.790Z,22.59
2018-07-24T07:08:22.094Z,22.70
2018-07-24T07:10:53.377Z,22.83
2018-07-24T07:13:23.817Z,22.94
2018-07-24T07:15:54.765Z,23.04
2018-07-24T07:18:25.705Z,23.16
2018-07-24T07:20:56.596Z,23.30
2018-07-24T07:23:27.684Z,23.43
2018-07-24T07:25:58.661Z,23.58
2018-07-24T07:31:00.129Z,23.79
2018-07-24T07:33:31.815Z,23.84
2018-07-24T07:36:02.688Z,23.90
2018-07-24T07:38:33.686Z,23.97
2018-07-24T07:41:04.539Z,24.06
2018-07-24T07:43:35.475Z,24.16
2018-07-24T07:46:06.539Z,24.30
2018-07-24T07:48:37.691Z,24.38
2018-07-24T07:51:08.159Z,24.53
2018-07-24T07:53:40.957Z,24.60
2018-07-24T07:56:10.841Z,24.77
2018-07-24T07:58:41.897Z,24.98
2018-07-24T08:01:12.623Z,25.15
2018-07-24T08:03:43.565Z,25.30
2018-07-24T08:06:14.453Z,25.35
2018-07-24T08:08:45.497Z,25.45
2018-07-24T08:11:16.476Z,25.59
2018-07-24T08:13:47.474Z,25.70
2018-07-24T08:16:18.795Z,25.73
2018-07-24T08:18:49.719Z,25.79
2018-07-24T08:21:20.875Z,25.92
2018-07-24T08:23:51.592Z,25.97
2018-07-24T08:26:23.998Z,26.09
2018-07-24T08:28:54.995Z,26.21
2018-07-24T08:31:24.897Z,26.20
2018-07-24T08:33:55.663Z,26.34
2018-07-24T08:36:26.631Z,26.49
2018-07-24T08:38:57.549Z,26.65
2018-07-24T08:41:28.388Z,26.74
2018-07-24T08:43:59.435Z,26.87
2018-07-24T08:46:30.754Z,26.92
2018-07-24T08:49:02.202Z,26.93
2018-07-24T08:51:33.083Z,27.10
2018-07-24T08:54:03.755Z,27.33
2018-07-24T08:56:34.687Z,27.45
2018-07-24T08:59:04.574Z,27.60
2018-07-24T09:01:35.350Z,27.69
2018-07-24T09:04:06.815Z,27.69
2018-07-24T09:06:37.633Z,27.81
2018-07-24T09:09:11.017Z,27.87
2018-07-24T09:11:42.056Z,27.94
2018-07-24T09:14:13.014Z,28.20
2018-07-24T09:16:43.434Z,28.25
2018-07-24T09:19:13.293Z,28.23
2018-07-24T09:21:43.962Z,28.43
2018-07-24T09:24:14.714Z,28.53
2018-07-24T09:26:45.618Z,28.52
2018-07-24T09:29:16.469Z,28.27
2018-07-24T09:31:47.211Z,28.12
2018-07-24T09:34:17.811Z,28.10
2018-07-24T09:36:48.545Z,28.06
2018-07-24T09:39:19.536Z,28.36
2018-07-24T09:41:50.395Z,28.62
2018-07-24T09:44:21.849Z,28.83
2018-07-24T09:46:52.670Z,28.91
2018-07-24T09:49:23.566Z,28.87
2018-07-24T09:51:55.095Z,28.72
2018-07-24T09:54:25.719Z,28.98
2018-07-24T09:56:56.849Z,29.21
2018-07-24T09:59:27.684Z,29.43
2018-07-24T10:01:58.699Z,29.46
2018-07-24T10:04:29.533Z,29.32
2018-07-24T10:07:00.355Z,28.85
2018-07-24T10:09:31.438Z,28.42
2018-07-24T10:12:02.444Z,28.82
2018-07-24T10:14:33.569Z,29.12
2018-07-24T10:17:04.326Z,29.40
2018-07-24T10:19:35.792Z,29.70
2018-07-24T10:22:06.655Z,29.85
2018-07-24T10:24:37.466Z,29.81
2018-07-24T10:27:08.403Z,29.96
2018-07-24T10:29:38.357Z,30.14
2018-07-24T10:32:09.076Z,30.29
2018-07-24T10:34:39.678Z,30.28
2018-07-24T10:37:10.687Z,30.38
2018-07-24T10:39:41.485Z,30.12
2018-07-24T10:42:12.308Z,30.29
2018-07-24T10:44:43.740Z,30.50
2018-07-24T10:47:14.507Z,30.73
2018-07-24T10:49:45.351Z,30.85
2018-07-24T10:52:16.653Z,31.06
2018-07-24T10:54:47.590Z,30.83
2018-07-24T10:57:18.369Z,30.93
2018-07-24T10:59:49.320Z,30.71
2018-07-24T11:02:20.960Z,30.98
2018-07-24T11:04:53.998Z,30.99
2018-07-24T11:07:24.388Z,30.93
2018-07-24T11:09:54.325Z,30.92
2018-07-24T11:12:24.378Z,31.06
2018-07-24T11:14:55.438Z,31.29
2018-07-24T11:17:25.513Z,31.41
2018-07-24T11:19:56.449Z,31.10
2018-07-24T11:22:27.927Z,30.47
2018-07-24T11:24:58.572Z,30.99
2018-07-24T11:27:29.393Z,31.19
2018-07-24T11:30:00.406Z,30.63
2018-07-24T11:32:32.018Z,30.80
2018-07-24T11:35:02.731Z,31.36
2018-07-24T11:37:33.493Z,31.71
2018-07-24T11:40:05.150Z,31.68
2018-07-24T11:42:35.637Z,31.85
2018-07-24T11:45:07.251Z,31.88
2018-07-24T11:47:37.085Z,32.04
2018-07-24T11:50:07.853Z,31.85
2018-07-24T11:52:38.671Z,31.06
2018-07-24T11:55:09.539Z,30.70
2018-07-24T11:57:40.343Z,31.21
2018-07-24T12:00:11.348Z,31.15
2018-07-24T12:02:42.681Z,31.19
2018-07-24T12:05:13.512Z,31.51
2018-07-24T12:07:44.351Z,31.84
2018-07-24T12:10:15.445Z,31.82
2018-07-24T12:12:46.362Z,31.52
2018-07-24T12:15:17.965Z,31.01
2018-07-24T12:17:48.587Z,30.50
2018-07-24T12:20:19.463Z,30.28
2018-07-24T12:22:50.342Z,30.52
2018-07-24T12:25:21.420Z,30.89
2018-07-24T12:27:52.329Z,31.12
2018-07-24T12:30:23.691Z,31.44
2018-07-24T12:32:54.452Z,31.13
2018-07-24T12:35:25.453Z,30.47
2018-07-24T12:37:56.373Z,30.58
2018-07-24T12:40:27.349Z,30.91
2018-07-24T12:42:58.480Z,31.49
2018-07-24T12:45:29.533Z,31.65
2018-07-24T12:48:00.353Z,31.96
2018-07-24T12:50:31.729Z,32.13
2018-07-24T12:53:01.549Z,32.30
2018-07-24T12:55:32.724Z,31.89
2018-07-24T12:58:03.630Z,32.07
2018-07-24T13:00:34.590Z,32.18
2018-07-24T13:03:05.510Z,32.29
2018-07-24T13:05:36.304Z,32.35
2018-07-24T13:08:07.756Z,32.45
2018-07-24T13:10:38.669Z,32.34
2018-07-24T13:13:09.456Z,31.88
2018-07-24T13:15:40.921Z,31.84
2018-07-24T13:18:11.561Z,31.76
2018-07-24T13:20:42.519Z,32.15
2018-07-24T13:23:13.444Z,32.13
2018-07-24T13:25:44.386Z,31.65
2018-07-24T13:28:15.947Z,31.98
2018-07-24T13:30:46.649Z,32.04
2018-07-24T13:33:17.354Z,32.23
2018-07-24T13:35:48.381Z,32.31
2018-07-24T13:38:19.770Z,32.27
2018-07-24T13:40:50.712Z,32.50
2018-07-24T13:43:21.459Z,32.42
2018-07-24T13:45:52.532Z,32.57
2018-07-24T13:48:23.390Z,32.37
2018-07-24T13:50:54.353Z,32.63
2018-07-24T13:53:25.388Z,32.66
2018-07-24T13:55:56.429Z,32.49
2018-07-24T13:58:27.460Z,32.38
2018-07-24T14:00:58.729Z,32.44
2018-07-24T14:03:29.911Z,31.99
2018-07-24T14:06:00.573Z,32.14
2018-07-24T14:08:31.369Z,32.07
2018-07-24T14:11:02.385Z,32.19
2018-07-24T14:13:33.709Z,32.20
2018-07-24T14:16:04.599Z,31.92
2018-07-24T14:18:35.398Z,31.92
2018-07-24T14:21:06.442Z,31.84
2018-07-24T14:23:37.372Z,31.86
2018-07-24T14:26:08.471Z,32.27
2018-07-24T14:28:39.445Z,32.50
2018-07-24T14:31:10.596Z,32.41
2018-07-24T14:33:41.509Z,32.76
2018-07-24T14:36:12.551Z,32.97
2018-07-24T14:38:43.520Z,32.74
2018-07-24T14:41:14.337Z,32.71
2018-07-24T14:43:45.268Z,32.61
2018-07-24T14:46:16.795Z,32.27
2018-07-24T14:48:47.640Z,32.26
2018-07-24T14:51:18.627Z,32.46
2018-07-24T14:53:49.394Z,32.40
2018-07-24T14:56:20.830Z,31.95
2018-07-24T14:58:51.593Z,31.63
2018-07-24T15:01:22.604Z,31.63
2018-07-24T15:03:53.327Z,31.75
2018-07-24T15:06:24.699Z,31.74
2018-07-24T15:08:55.532Z,31.88
2018-07-24T15:11:26.373Z,31.94
2018-07-24T15:13:57.449Z,31.91
2018-07-24T15:16:28.602Z,32.06
2018-07-24T15:18:59.396Z,32.42
2018-07-24T15:21:30.433Z,32.60
2018-07-24T15:24:01.413Z,32.37
2018-07-24T15:26:32.421Z,31.97
2018-07-24T15:29:03.509Z,31.81
2018-07-24T15:31:34.107Z,32.05
2018-07-24T15:34:04.917Z,31.73
2018-07-24T15:36:35.962Z,31.86
2018-07-24T15:39:09.946Z,32.00
2018-07-24T15:41:40.304Z,32.23
2018-07-24T15:44:10.267Z,31.99
2018-07-24T15:46:40.302Z,32.24
2018-07-24T15:49:10.404Z,32.32
2018-07-24T15:51:41.465Z,32.37
2018-07-24T15:54:12.392Z,32.30
2018-07-24T15:56:43.657Z,32.13
2018-07-24T15:59:14.420Z,32.20
2018-07-24T16:01:45.392Z,32.20
2018-07-24T16:04:16.360Z,31.95
2018-07-24T16:06:47.553Z,32.15
2018-07-24T16:09:18.338Z,32.30
2018-07-24T16:11:49.376Z,32.38
2018-07-24T16:14:20.372Z,32.17
2018-07-24T16:16:51.457Z,32.10
2018-07-24T16:19:24.070Z,32.14
2018-07-24T16:21:54.117Z,32.37
2018-07-24T16:24:24.754Z,32.26
2018-07-24T16:26:55.526Z,31.46
2018-07-24T16:29:26.545Z,31.33
2018-07-24T16:31:57.216Z,31.56
2018-07-24T16:34:29.569Z,31.31
2018-07-24T16:36:59.460Z,31.42
2018-07-24T16:39:29.290Z,31.53
2018-07-24T16:42:00.385Z,31.51
2018-07-24T16:44:31.510Z,31.44
2018-07-24T16:47:02.506Z,31.65
2018-07-24T16:49:33.346Z,31.59
2018-07-24T16:52:04.677Z,31.62
2018-07-24T16:54:35.420Z,31.72
2018-07-24T16:57:06.957Z,31.54
2018-07-24T16:59:37.638Z,31.62
2018-07-24T17:02:09.582Z,31.67
2018-07-24T17:04:39.513Z,31.67
2018-07-24T17:07:10.360Z,31.77
2018-07-24T17:09:41.752Z,31.83
2018-07-24T17:12:12.962Z,31.89
2018-07-24T17:14:43.621Z,31.44
2018-07-24T17:17:14.478Z,31.49
2018-07-24T17:19:45.446Z,31.20
2018-07-24T17:22:16.321Z,31.08
2018-07-24T17:24:48.393Z,30.81
2018-07-24T17:27:18.765Z,30.74
2018-07-24T17:29:49.633Z,30.91
2018-07-24T17:32:20.480Z,30.93
2018-07-24T17:34:51.347Z,31.02
2018-07-24T17:37:22.982Z,31.02
2018-07-24T17:39:54.089Z,30.93
2018-07-24T17:42:24.696Z,30.59
2018-07-24T17:44:56.601Z,30.72
2018-07-24T17:47:26.544Z,30.78
2018-07-24T17:49:57.362Z,30.75
2018-07-24T17:52:28.846Z,30.77
2018-07-24T17:54:59.631Z,30.76
2018-07-24T17:57:30.563Z,30.74
2018-07-24T18:00:01.418Z,30.73
2018-07-24T18:02:32.449Z,30.69
2018-07-24T18:05:03.381Z,30.63
2018-07-24T18:07:35.019Z,30.56
2018-07-24T18:10:05.832Z,30.54
2018-07-24T18:12:36.632Z,30.48
2018-07-24T18:15:07.470Z,30.41
2018-07-24T18:17:38.771Z,30.32
2018-07-24T18:20:09.880Z,30.26
2018-07-24T18:22:40.662Z,30.16
2018-07-24T18:25:11.527Z,30.04
2018-07-24T18:27:42.540Z,29.95
2018-07-24T18:30:13.683Z,29.88
2018-07-24T18:32:44.600Z,29.82
2018-07-24T18:35:15.519Z,29.75
2018-07-24T18:37:46.402Z,29.64
2018-07-24T18:40:17.407Z,29.50
2018-07-24T18:42:48.368Z,29.38
2018-07-24T18:45:20.606Z,29.32
2018-07-24T18:47:50.485Z,29.16
2018-07-24T18:50:21.310Z,29.12
2018-07-24T18:52:52.974Z,28.97
2018-07-24T18:55:23.593Z,28.98
2018-07-24T18:57:54.472Z,28.88
2018-07-24T19:00:25.348Z,28.78
2018-07-24T19:02:56.384Z,28.64
2018-07-24T19:05:27.819Z,28.56
2018-07-24T19:07:58.974Z,28.44
2018-07-24T19:10:28.863Z,28.38
2018-07-24T19:12:59.742Z,28.26
2018-07-24T19:15:30.672Z,28.17
2018-07-24T19:18:00.664Z,28.04
2018-07-24T19:20:32.433Z,27.91
2018-07-24T19:23:03.464Z,27.85
2018-07-24T19:25:34.473Z,27.72
2018-07-24T19:28:05.464Z,27.65
2018-07-24T19:30:36.889Z,27.57
2018-07-24T19:33:07.776Z,27.45
2018-07-24T19:35:38.635Z,27.40
2018-07-24T19:38:09.625Z,27.33
2018-07-24T19:40:40.802Z,27.24
2018-07-24T19:43:12.784Z,27.17
2018-07-24T19:45:42.614Z,27.08
2018-07-24T19:48:13.972Z,26.98
2018-07-24T19:50:44.653Z,26.88
2018-07-24T19:53:15.560Z,26.76
2018-07-24T19:55:46.417Z,26.65
2018-07-24T19:58:17.506Z,26.55
2018-07-24T20:00:48.297Z,26.48
2018-07-24T20:03:19.983Z,26.42
2018-07-24T20:05:50.603Z,26.36
2018-07-24T20:08:21.487Z,26.28
2018-07-24T20:10:52.485Z,26.21
2018-07-24T20:13:23.445Z,26.15
2018-07-24T20:15:54.727Z,26.08
2018-07-24T20:18:25.528Z,26.03
2018-07-24T20:20:56.495Z,25.98
2018-07-24T20:23:27.440Z,25.92
2018-07-24T20:25:58.457Z,25.84
2018-07-24T20:28:28.454Z,25.68
2018-07-24T20:30:59.730Z,25.71
2018-07-24T20:33:30.657Z,25.65
2018-07-24T20:36:01.475Z,25.60
2018-07-24T20:38:32.420Z,25.56
2018-07-24T20:41:03.313Z,25.49
2018-07-24T20:43:34.710Z,25.44
2018-07-24T20:46:05.833Z,25.30
2018-07-24T20:48:36.621Z,25.34
2018-07-24T20:51:07.542Z,25.26
2018-07-24T20:53:38.542Z,25.17
2018-07-24T20:56:09.385Z,25.07
2018-07-24T20:58:40.332Z,25.00
2018-07-24T21:01:11.805Z,24.93
2018-07-24T21:03:42.610Z,24.87
2018-07-24T21:06:13.457Z,24.81
2018-07-24T21:08:44.523Z,24.77
2018-07-24T21:11:15.367Z,24.73
2018-07-24T21:13:46.937Z,24.68
2018-07-24T21:16:17.536Z,24.62
2018-07-24T21:18:48.500Z,24.53
2018-07-24T21:21:19.467Z,24.47
2018-07-24T21:23:50.413Z,24.44
2018-07-24T21:26:21.815Z,24.39
2018-07-24T21:28:52.626Z,24.37
2018-07-24T21:31:23.249Z,24.33
2018-07-24T21:33:53.861Z,24.29
2018-07-24T21:36:24.583Z,24.27
2018-07-24T21:38:55.733Z,24.23
2018-07-24T21:41:26.718Z,24.19
2018-07-24T21:43:57.533Z,24.14
2018-07-24T21:46:28.466Z,24.07
2018-07-24T21:48:59.513Z,24.00
2018-07-24T21:51:31.433Z,23.94
2018-07-24T21:54:01.334Z,23.91
2018-07-24T21:56:32.677Z,23.87
2018-07-24T21:59:03.669Z,23.79
2018-07-24T22:01:33.546Z,23.74
2018-07-24T22:04:04.618Z,23.63
2018-07-24T22:06:35.819Z,23.58
2018-07-24T22:09:08.764Z,23.53
2018-07-24T22:11:38.483Z,23.50
2018-07-24T22:14:08.310Z,23.48
2018-07-24T22:16:39.561Z,23.44
2018-07-24T22:19:10.229Z,23.39
2018-07-24T22:21:41.556Z,23.33
2018-07-24T22:24:12.667Z,23.27
2018-07-24T22:26:43.203Z,23.20
2018-07-24T22:29:14.583Z,23.19
2018-07-24T22:31:46.014Z,23.13
2018-07-24T22:34:16.547Z,23.15
2018-07-24T22:36:48.143Z,23.12
2018-07-24T22:39:18.527Z,23.08
2018-07-24T22:41:49.974Z,23.03
2018-07-24T22:44:21.680Z,22.99
2018-07-24T22:46:51.418Z,22.91
2018-07-24T22:49:22.628Z,22.86
2018-07-24T22:51:53.258Z,22.81
2018-07-24T22:54:24.532Z,22.76
2018-07-24T22:56:54.738Z,22.73
2018-07-24T22:59:25.281Z,22.69
2018-07-24T23:01:56.604Z,22.64
2018-07-24T23:04:27.631Z,22.59
2018-07-24T23:06:58.434Z,22.56
2018-07-24T23:09:29.752Z,22.55
2018-07-24T23:12:00.367Z,22.54
2018-07-24T23:14:31.550Z,22.54
2018-07-24T23:17:02.855Z,22.53
2018-07-24T23:19:33.582Z,22.47
2018-07-24T23:22:04.246Z,22.41
2018-07-24T23:24:35.597Z,22.33
2018-07-24T23:27:06.325Z,22.11
2018-07-24T23:29:37.572Z,22.27
2018-07-24T23:32:08.900Z,22.26
2018-07-24T23:34:38.524Z,22.27
2018-07-24T23:37:09.833Z,22.24
2018-07-24T23:39:40.727Z,22.22
2018-07-24T23:42:11.578Z,22.19
2018-07-24T23:44:42.935Z,22.16
2018-07-24T23:47:13.730Z,22.11
2018-07-24T23:49:44.632Z,22.09
2018-07-24T23:52:15.721Z,22.06
2018-07-24T23:54:46.540Z,22.03
2018-07-24T23:57:17.805Z,22.00
2018-07-24T23:59:48.621Z,21.96
